sensor_id;sensor_type;location;lat;lon;timestamp;pressure;altitude;pressure_sealevel;temperature;humidity
9935;BME280;5006;41.828;23.478;2023-04-06T00:00:33;89733.72;;;7.35;56.79
9935;BME280;5006;41.828;23.478;2023-04-06T00:01:38;89715.81;;;7.46;56.31
9935;BME280;5006;41.828;23.478;2023-04-06T00:02:44;89724.94;;;7.84;55.77
9935;BME280;5006;41.828;23.478;2023-04-06T00:03:49;89727.25;;;7.71;55.72
9935;BME280;5006;41.828;23.478;2023-04-06T00:04:55;89713.53;;;7.45;56.30
9935;BME280;5006;41.828;23.478;2023-04-06T00:06:00;89718.09;;;7.16;56.74
9935;BME280;5006;41.828;23.478;2023-04-06T00:07:06;89713.53;;;7.48;56.56
9935;BME280;5006;41.828;23.478;2023-04-06T00:08:10;89718.06;;;7.83;56.40
9935;BME280;5006;41.828;23.478;2023-04-06T00:09:16;89710.03;;;8.04;55.34
9935;BME280;5006;41.828;23.478;2023-04-06T00:10:21;89713.16;;;7.60;55.83
9935;BME280;5006;41.828;23.478;2023-04-06T00:11:28;89703.63;;;7.59;56.48
9935;BME280;5006;41.828;23.478;2023-04-06T00:12:33;89715.78;;;7.85;55.14
9935;BME280;5006;41.828;23.478;2023-04-06T00:13:39;89703.63;;;7.59;55.54
9935;BME280;5006;41.828;23.478;2023-04-06T00:14:44;89713.38;;;8.36;54.62
9935;BME280;5006;41.828;23.478;2023-04-06T00:15:50;89712.75;;;7.09;56.15
9935;BME280;5006;41.828;23.478;2023-04-06T00:16:55;89704.00;;;7.65;55.53
9935;BME280;5006;41.828;23.478;2023-04-06T00:18:00;89712.72;;;7.86;55.08
9935;BME280;5006;41.828;23.478;2023-04-06T00:19:05;89704.75;;;7.72;55.68
9935;BME280;5006;41.828;23.478;2023-04-06T00:20:11;89707.00;;;7.91;55.03
9935;BME280;5006;41.828;23.478;2023-04-06T00:21:16;89706.56;;;8.17;54.75
9935;BME280;5006;41.828;23.478;2023-04-06T00:22:22;89703.56;;;7.84;54.87
9935;BME280;5006;41.828;23.478;2023-04-06T00:23:26;89719.59;;;7.84;55.24
9935;BME280;5006;41.828;23.478;2023-04-06T00:24:32;89697.84;;;7.96;54.69
9935;BME280;5006;41.828;23.478;2023-04-06T00:25:37;89696.00;;;7.65;55.68
9935;BME280;5006;41.828;23.478;2023-04-06T00:26:44;89718.81;;;7.94;55.13
9935;BME280;5006;41.828;23.478;2023-04-06T00:27:49;89692.53;;;7.82;54.88
9935;BME280;5006;41.828;23.478;2023-04-06T00:28:55;89697.06;;;8.06;54.41
9935;BME280;5006;41.828;23.478;2023-04-06T00:30:00;89714.97;;;8.12;54.40
9935;BME280;5006;41.828;23.478;2023-04-06T00:31:06;89684.44;;;8.27;54.64
9935;BME280;5006;41.828;23.478;2023-04-06T00:32:10;89690.63;;;7.86;55.21
9935;BME280;5006;41.828;23.478;2023-04-06T00:33:16;89691.31;;;8.25;54.44
9935;BME280;5006;41.828;23.478;2023-04-06T00:34:20;89692.53;;;7.92;54.48
9935;BME280;5006;41.828;23.478;2023-04-06T00:35:26;89686.34;;;8.16;54.41
9935;BME280;5006;41.828;23.478;2023-04-06T00:36:31;89689.03;;;8.23;53.73
9935;BME280;5006;41.828;23.478;2023-04-06T00:37:37;89678.41;;;7.99;54.19
9935;BME280;5006;41.828;23.478;2023-04-06T00:38:41;89689.41;;;8.11;54.44
9935;BME280;5006;41.828;23.478;2023-04-06T00:39:48;89703.56;;;7.87;54.64
9935;BME280;5006;41.828;23.478;2023-04-06T00:40:52;89689.75;;;8.34;53.77
9935;BME280;5006;41.828;23.478;2023-04-06T00:42:10;89687.69;;;8.69;53.06
9935;BME280;5006;41.828;23.478;2023-04-06T00:43:15;89695.06;;;8.41;53.10
9935;BME280;5006;41.828;23.478;2023-04-06T00:44:24;89688.34;;;7.81;54.46
9935;BME280;5006;41.828;23.478;2023-04-06T00:45:29;89694.31;;;8.41;54.66
9935;BME280;5006;41.828;23.478;2023-04-06T00:46:35;89688.06;;;8.68;53.46
9935;BME280;5006;41.828;23.478;2023-04-06T00:47:41;89691.50;;;8.75;53.44
9935;BME280;5006;41.828;23.478;2023-04-06T00:48:46;89682.78;;;9.22;52.15
9935;BME280;5006;41.828;23.478;2023-04-06T00:49:52;89688.19;;;8.44;53.81
9935;BME280;5006;41.828;23.478;2023-04-06T00:50:58;89682.47;;;8.38;53.71
9935;BME280;5006;41.828;23.478;2023-04-06T00:52:03;89685.50;;;8.47;53.66
9935;BME280;5006;41.828;23.478;2023-04-06T00:53:09;89680.97;;;8.34;53.79
9935;BME280;5006;41.828;23.478;2023-04-06T00:54:13;89688.34;;;7.84;54.83
9935;BME280;5006;41.828;23.478;2023-04-06T00:55:21;89690.56;;;8.14;54.28
9935;BME280;5006;41.828;23.478;2023-04-06T00:56:26;89686.03;;;7.86;54.63
9935;BME280;5006;41.828;23.478;2023-04-06T00:57:34;89691.00;;;7.84;55.11
9935;BME280;5006;41.828;23.478;2023-04-06T00:58:39;89689.81;;;7.99;54.78
9935;BME280;5006;41.828;23.478;2023-04-06T00:59:46;89687.75;;;8.59;53.92
9935;BME280;5006;41.828;23.478;2023-04-06T01:00:51;89682.59;;;8.96;53.19
9935;BME280;5006;41.828;23.478;2023-04-06T01:01:59;89681.25;;;8.56;53.39
9935;BME280;5006;41.828;23.478;2023-04-06T01:03:12;89687.59;;;7.73;55.42
9935;BME280;5006;41.828;23.478;2023-04-06T01:04:20;89687.19;;;7.82;55.21
9935;BME280;5006;41.828;23.478;2023-04-06T01:05:27;89689.13;;;7.81;55.01
9935;BME280;5006;41.828;23.478;2023-04-06T01:06:35;89690.66;;;7.68;55.01
9935;BME280;5006;41.828;23.478;2023-04-06T01:07:40;89693.94;;;8.32;54.64
9935;BME280;5006;41.828;23.478;2023-04-06T01:08:50;89687.88;;;8.14;54.19
9935;BME280;5006;41.828;23.478;2023-04-06T01:09:58;89686.03;;;7.86;54.84
9935;BME280;5006;41.828;23.478;2023-04-06T01:11:10;89696.31;;;8.05;54.09
9935;BME280;5006;41.828;23.478;2023-04-06T01:12:15;89690.66;;;7.58;55.49
9935;BME280;5006;41.828;23.478;2023-04-06T01:13:22;89674.66;;;7.68;55.12
9935;BME280;5006;41.828;23.478;2023-04-06T01:14:31;89678.06;;;7.69;55.74
9935;BME280;5006;41.828;23.478;2023-04-06T01:15:38;89676.50;;;7.92;55.05
9935;BME280;5006;41.828;23.478;2023-04-06T01:16:45;89684.56;;;7.75;55.37
9935;BME280;5006;41.828;23.478;2023-04-06T01:17:54;89676.50;;;7.85;54.62
9935;BME280;5006;41.828;23.478;2023-04-06T01:18:59;89683.78;;;7.81;55.45
9935;BME280;5006;41.828;23.478;2023-04-06T01:20:08;89679.09;;;8.31;54.30
9935;BME280;5006;41.828;23.478;2023-04-06T01:21:13;89672.00;;;7.54;56.05
9935;BME280;5006;41.828;23.478;2023-04-06T01:22:32;89681.13;;;7.67;55.78
9935;BME280;5006;41.828;23.478;2023-04-06T01:23:40;89673.91;;;7.61;55.75
9935;BME280;5006;41.828;23.478;2023-04-06T01:24:46;89671.59;;;7.59;55.81
9935;BME280;5006;41.828;23.478;2023-04-06T01:26:05;89671.59;;;7.77;55.57
9935;BME280;5006;41.828;23.478;2023-04-06T01:27:11;89675.00;;;7.77;55.10
9935;BME280;5006;41.828;23.478;2023-04-06T01:28:45;89670.06;;;7.72;55.90
9935;BME280;5006;41.828;23.478;2023-04-06T01:30:02;89676.94;;;7.21;56.54
9935;BME280;5006;41.828;23.478;2023-04-06T01:31:25;89670.84;;;7.13;56.18
9935;BME280;5006;41.828;23.478;2023-04-06T01:32:30;89668.13;;;7.87;55.64
9935;BME280;5006;41.828;23.478;2023-04-06T01:33:36;89664.75;;;7.62;55.39
9935;BME280;5006;41.828;23.478;2023-04-06T01:34:45;89657.09;;;7.81;55.35
9935;BME280;5006;41.828;23.478;2023-04-06T01:35:49;89663.16;;;7.89;55.20
9935;BME280;5006;41.828;23.478;2023-04-06T01:36:58;89657.84;;;7.82;55.00
9935;BME280;5006;41.828;23.478;2023-04-06T01:38:09;89663.19;;;7.64;55.23
9935;BME280;5006;41.828;23.478;2023-04-06T01:39:16;89662.81;;;7.59;56.14
9935;BME280;5006;41.828;23.478;2023-04-06T01:40:20;89655.53;;;7.91;55.43
9935;BME280;5006;41.828;23.478;2023-04-06T01:41:29;89665.75;;;8.10;54.63
9935;BME280;5006;41.828;23.478;2023-04-06T01:42:33;89657.38;;;8.15;54.59
9935;BME280;5006;41.828;23.478;2023-04-06T01:43:39;89659.72;;;7.95;54.82
9935;BME280;5006;41.828;23.478;2023-04-06T01:44:47;89659.34;;;7.86;55.37
9935;BME280;5006;41.828;23.478;2023-04-06T01:45:54;89668.50;;;7.78;54.85
9935;BME280;5006;41.828;23.478;2023-04-06T01:47:01;89658.13;;;8.26;54.31
9935;BME280;5006;41.828;23.478;2023-04-06T01:48:07;89656.19;;;8.26;54.58
9935;BME280;5006;41.828;23.478;2023-04-06T01:49:12;89661.69;;;7.67;54.76
9935;BME280;5006;41.828;23.478;2023-04-06T01:50:19;89649.69;;;8.31;53.75
9935;BME280;5006;41.828;23.478;2023-04-06T01:51:24;89649.72;;;8.27;53.50
9935;BME280;5006;41.828;23.478;2023-04-06T01:52:37;89660.84;;;8.01;53.58
9935;BME280;5006;41.828;23.478;2023-04-06T01:53:43;89653.31;;;7.58;54.73
9935;BME280;5006;41.828;23.478;2023-04-06T01:54:49;89655.53;;;7.94;54.88
9935;BME280;5006;41.828;23.478;2023-04-06T01:56:05;89650.25;;;7.52;54.61
9935;BME280;5006;41.828;23.478;2023-04-06T01:57:15;89651.81;;;7.43;56.00
9935;BME280;5006;41.828;23.478;2023-04-06T01:58:32;89651.78;;;7.60;54.59
9935;BME280;5006;41.828;23.478;2023-04-06T01:59:38;89649.13;;;7.39;55.39
9935;BME280;5006;41.828;23.478;2023-04-06T02:00:50;89652.19;;;7.13;55.59
9935;BME280;5006;41.828;23.478;2023-04-06T02:01:55;89644.22;;;7.20;55.29
9935;BME280;5006;41.828;23.478;2023-04-06T02:03:02;89650.25;;;7.56;55.50
9935;BME280;5006;41.828;23.478;2023-04-06T02:04:09;89642.66;;;6.95;56.03
9935;BME280;5006;41.828;23.478;2023-04-06T02:05:15;89659.00;;;6.69;56.92
9935;BME280;5006;41.828;23.478;2023-04-06T02:06:21;89659.44;;;6.85;56.62
9935;BME280;5006;41.828;23.478;2023-04-06T02:07:26;89654.50;;;7.15;56.08
9935;BME280;5006;41.828;23.478;2023-04-06T02:08:33;89655.56;;;6.61;56.47
9935;BME280;5006;41.828;23.478;2023-04-06T02:09:39;89646.88;;;7.06;55.85
9935;BME280;5006;41.828;23.478;2023-04-06T02:10:50;89658.63;;;6.56;56.88
9935;BME280;5006;41.828;23.478;2023-04-06T02:12:05;89649.13;;;6.59;57.05
9935;BME280;5006;41.828;23.478;2023-04-06T02:13:12;89650.66;;;6.98;56.24
9935;BME280;5006;41.828;23.478;2023-04-06T02:14:19;89645.72;;;6.65;56.75
9935;BME280;5006;41.828;23.478;2023-04-06T02:15:29;89640.72;;;6.46;57.22
9935;BME280;5006;41.828;23.478;2023-04-06T02:16:34;89642.25;;;6.61;57.39
9935;BME280;5006;41.828;23.478;2023-04-06T02:17:39;89651.03;;;6.65;56.88
9935;BME280;5006;41.828;23.478;2023-04-06T02:18:46;89648.00;;;6.95;56.16
9935;BME280;5006;41.828;23.478;2023-04-06T02:19:51;89656.72;;;6.53;57.06
9935;BME280;5006;41.828;23.478;2023-04-06T02:20:56;89648.00;;;6.95;56.62
9935;BME280;5006;41.828;23.478;2023-04-06T02:22:02;89651.66;;;6.17;57.72
9935;BME280;5006;41.828;23.478;2023-04-06T02:23:06;89646.84;;;6.75;57.21
9935;BME280;5006;41.828;23.478;2023-04-06T02:24:12;89648.66;;;6.32;57.28
9935;BME280;5006;41.828;23.478;2023-04-06T02:25:18;89647.94;;;6.49;57.42
9935;BME280;5006;41.828;23.478;2023-04-06T02:26:24;89647.22;;;6.73;56.52
9935;BME280;5006;41.828;23.478;2023-04-06T02:27:29;89645.59;;;6.24;57.34
9935;BME280;5006;41.828;23.478;2023-04-06T02:28:36;89653.69;;;6.83;56.43
9935;BME280;5006;41.828;23.478;2023-04-06T02:29:41;89646.78;;;6.43;57.22
9935;BME280;5006;41.828;23.478;2023-04-06T02:30:47;89638.41;;;6.34;57.55
9935;BME280;5006;41.828;23.478;2023-04-06T02:31:52;89640.25;;;6.13;57.52
9935;BME280;5006;41.828;23.478;2023-04-06T02:32:59;89635.81;;;6.94;56.26
9935;BME280;5006;41.828;23.478;2023-04-06T02:34:04;89640.72;;;6.39;56.85
9935;BME280;5006;41.828;23.478;2023-04-06T02:35:12;89641.53;;;6.64;56.67
9935;BME280;5006;41.828;23.478;2023-04-06T02:36:18;89652.94;;;6.75;56.27
9935;BME280;5006;41.828;23.478;2023-04-06T02:37:24;89642.63;;;6.56;57.06
9935;BME280;5006;41.828;23.478;2023-04-06T02:38:30;89646.03;;;6.57;56.72
9935;BME280;5006;41.828;23.478;2023-04-06T02:39:38;89649.78;;;6.21;57.58
9935;BME280;5006;41.828;23.478;2023-04-06T02:40:47;89639.09;;;6.14;57.66
9935;BME280;5006;41.828;23.478;2023-04-06T02:42:05;89650.13;;;6.13;57.61
9935;BME280;5006;41.828;23.478;2023-04-06T02:43:09;89653.13;;;5.97;58.12
9935;BME280;5006;41.828;23.478;2023-04-06T02:44:15;89665.19;;;5.81;58.58
9935;BME280;5006;41.828;23.478;2023-04-06T02:45:21;89658.84;;;6.03;58.48
9935;BME280;5006;41.828;23.478;2023-04-06T02:46:27;89660.09;;;6.43;57.04
9935;BME280;5006;41.828;23.478;2023-04-06T02:47:32;89659.31;;;6.32;57.69
9935;BME280;5006;41.828;23.478;2023-04-06T02:48:38;89653.25;;;6.39;57.62
9935;BME280;5006;41.828;23.478;2023-04-06T02:49:43;89644.00;;;6.02;58.00
9935;BME280;5006;41.828;23.478;2023-04-06T02:50:49;89645.97;;;6.26;57.46
9935;BME280;5006;41.828;23.478;2023-04-06T02:51:54;89648.56;;;6.05;57.51
9935;BME280;5006;41.828;23.478;2023-04-06T02:53:04;89644.94;;;6.58;56.62
9935;BME280;5006;41.828;23.478;2023-04-06T02:54:09;89655.50;;;6.30;57.74
9935;BME280;5006;41.828;23.478;2023-04-06T02:55:15;89658.94;;;6.34;57.32
9935;BME280;5006;41.828;23.478;2023-04-06T02:56:21;89643.66;;;6.10;57.90
9935;BME280;5006;41.828;23.478;2023-04-06T02:57:29;89658.38;;;5.87;58.39
9935;BME280;5006;41.828;23.478;2023-04-06T02:58:34;89653.63;;;5.56;58.33
9935;BME280;5006;41.828;23.478;2023-04-06T02:59:41;89649.34;;;6.02;57.65
9935;BME280;5006;41.828;23.478;2023-04-06T03:01:00;89664.09;;;5.85;57.99
9935;BME280;5006;41.828;23.478;2023-04-06T03:02:06;89658.59;;;5.61;58.90
9935;BME280;5006;41.828;23.478;2023-04-06T03:03:11;89646.53;;;5.77;58.33
9935;BME280;5006;41.828;23.478;2023-04-06T03:04:19;89673.47;;;5.72;58.56
9935;BME280;5006;41.828;23.478;2023-04-06T03:05:26;89656.03;;;5.75;58.39
9935;BME280;5006;41.828;23.478;2023-04-06T03:06:32;89655.38;;;5.31;59.02
9935;BME280;5006;41.828;23.478;2023-04-06T03:07:44;89651.75;;;5.60;58.75
9935;BME280;5006;41.828;23.478;2023-04-06T03:08:57;89655.75;;;5.26;58.45
9935;BME280;5006;41.828;23.478;2023-04-06T03:10:03;89642.34;;;5.15;59.17
9935;BME280;5006;41.828;23.478;2023-04-06T03:11:10;89644.19;;;5.69;58.74
9935;BME280;5006;41.828;23.478;2023-04-06T03:12:20;89642.16;;;5.45;58.72
9935;BME280;5006;41.828;23.478;2023-04-06T03:13:44;89647.94;;;5.61;58.83
9935;BME280;5006;41.828;23.478;2023-04-06T03:14:49;89647.22;;;5.03;59.96
9935;BME280;5006;41.828;23.478;2023-04-06T03:15:55;89629.16;;;5.26;59.85
9935;BME280;5006;41.828;23.478;2023-04-06T03:17:00;89650.38;;;5.19;59.74
9935;BME280;5006;41.828;23.478;2023-04-06T03:18:07;89646.06;;;5.00;59.88
9935;BME280;5006;41.828;23.478;2023-04-06T03:19:20;89636.81;;;5.34;59.42
9935;BME280;5006;41.828;23.478;2023-04-06T03:20:26;89630.16;;;5.04;59.58
9935;BME280;5006;41.828;23.478;2023-04-06T03:21:30;89647.34;;;4.30;60.11
9935;BME280;5006;41.828;23.478;2023-04-06T03:22:36;89632.91;;;4.67;60.71
9935;BME280;5006;41.828;23.478;2023-04-06T03:23:41;89642.75;;;4.67;61.16
9935;BME280;5006;41.828;23.478;2023-04-06T03:24:46;89630.75;;;5.37;60.25
9935;BME280;5006;41.828;23.478;2023-04-06T03:25:51;89638.91;;;5.11;59.64
9935;BME280;5006;41.828;23.478;2023-04-06T03:26:59;89632.84;;;5.07;60.17
9935;BME280;5006;41.828;23.478;2023-04-06T03:28:06;89636.56;;;4.99;60.18
9935;BME280;5006;41.828;23.478;2023-04-06T03:29:18;89638.38;;;5.46;59.33
9935;BME280;5006;41.828;23.478;2023-04-06T03:30:22;89629.78;;;5.09;58.83
9935;BME280;5006;41.828;23.478;2023-04-06T03:31:30;89631.34;;;5.13;59.23
9935;BME280;5006;41.828;23.478;2023-04-06T03:32:37;89626.25;;;5.48;58.59
9935;BME280;5006;41.828;23.478;2023-04-06T03:33:43;89628.44;;;5.36;59.27
9935;BME280;5006;41.828;23.478;2023-04-06T03:34:53;89626.00;;;5.06;59.63
9935;BME280;5006;41.828;23.478;2023-04-06T03:35:59;89629.84;;;5.84;58.12
9935;BME280;5006;41.828;23.478;2023-04-06T03:37:04;89629.81;;;5.12;58.95
9935;BME280;5006;41.828;23.478;2023-04-06T03:38:10;89633.31;;;5.88;58.35
9935;BME280;5006;41.828;23.478;2023-04-06T03:39:14;89631.75;;;5.80;57.84
9935;BME280;5006;41.828;23.478;2023-04-06T03:40:21;89633.56;;;5.69;58.36
9935;BME280;5006;41.828;23.478;2023-04-06T03:41:26;89629.50;;;5.92;57.83
9935;BME280;5006;41.828;23.478;2023-04-06T03:42:40;89631.03;;;5.90;57.70
9935;BME280;5006;41.828;23.478;2023-04-06T03:43:52;89635.78;;;6.45;56.93
9935;BME280;5006;41.828;23.478;2023-04-06T03:44:58;89636.16;;;4.97;58.50
9935;BME280;5006;41.828;23.478;2023-04-06T03:46:03;89640.69;;;5.47;58.56
9935;BME280;5006;41.828;23.478;2023-04-06T03:47:09;89636.22;;;5.69;58.14
9935;BME280;5006;41.828;23.478;2023-04-06T03:48:14;89629.50;;;5.17;59.10
9935;BME280;5006;41.828;23.478;2023-04-06T03:49:20;89628.53;;;5.50;58.33
9935;BME280;5006;41.828;23.478;2023-04-06T03:50:28;89635.25;;;5.30;58.36
9935;BME280;5006;41.828;23.478;2023-04-06T03:51:34;89630.91;;;5.69;58.03
9935;BME280;5006;41.828;23.478;2023-04-06T03:52:38;89633.88;;;5.50;58.63
9935;BME280;5006;41.828;23.478;2023-04-06T03:53:44;89636.75;;;5.24;58.90
9935;BME280;5006;41.828;23.478;2023-04-06T03:54:49;89638.34;;;5.39;58.66
9935;BME280;5006;41.828;23.478;2023-04-06T03:55:56;89636.31;;;5.83;58.63
9935;BME280;5006;41.828;23.478;2023-04-06T03:57:01;89634.72;;;5.07;58.54
9935;BME280;5006;41.828;23.478;2023-04-06T03:58:07;89638.75;;;5.44;58.72
9935;BME280;5006;41.828;23.478;2023-04-06T03:59:13;89638.66;;;5.98;57.51
9935;BME280;5006;41.828;23.478;2023-04-06T04:00:19;89626.84;;;5.17;58.91
9935;BME280;5006;41.828;23.478;2023-04-06T04:01:25;89633.72;;;5.29;59.66
9935;BME280;5006;41.828;23.478;2023-04-06T04:02:30;89614.06;;;4.86;59.44
9935;BME280;5006;41.828;23.478;2023-04-06T04:03:35;89636.03;;;5.30;59.42
9935;BME280;5006;41.828;23.478;2023-04-06T04:04:41;89621.53;;;5.17;59.43
9935;BME280;5006;41.828;23.478;2023-04-06T04:05:45;89619.28;;;5.26;59.49
9935;BME280;5006;41.828;23.478;2023-04-06T04:06:52;89639.50;;;5.38;58.93
9935;BME280;5006;41.828;23.478;2023-04-06T04:07:56;89627.09;;;5.66;58.06
9935;BME280;5006;41.828;23.478;2023-04-06T04:09:04;89631.19;;;5.53;59.03
9935;BME280;5006;41.828;23.478;2023-04-06T04:10:09;89611.31;;;5.26;59.17
9935;BME280;5006;41.828;23.478;2023-04-06T04:11:15;89623.13;;;5.36;58.91
9935;BME280;5006;41.828;23.478;2023-04-06T04:12:20;89626.88;;;5.96;58.12
9935;BME280;5006;41.828;23.478;2023-04-06T04:13:26;89624.00;;;5.54;58.98
9935;BME280;5006;41.828;23.478;2023-04-06T04:14:32;89615.28;;;5.57;59.22
9935;BME280;5006;41.828;23.478;2023-04-06T04:15:39;89621.88;;;5.84;58.35
9935;BME280;5006;41.828;23.478;2023-04-06T04:16:44;89620.50;;;6.25;57.69
9935;BME280;5006;41.828;23.478;2023-04-06T04:17:50;89612.44;;;6.00;58.21
9935;BME280;5006;41.828;23.478;2023-04-06T04:18:55;89623.63;;;6.68;57.23
9935;BME280;5006;41.828;23.478;2023-04-06T04:20:02;89624.34;;;6.41;57.48
9935;BME280;5006;41.828;23.478;2023-04-06T04:21:08;89623.97;;;6.49;57.62
9935;BME280;5006;41.828;23.478;2023-04-06T04:22:14;89617.94;;;6.66;57.37
9935;BME280;5006;41.828;23.478;2023-04-06T04:23:19;89615.97;;;6.35;57.79
9935;BME280;5006;41.828;23.478;2023-04-06T04:24:25;89619.44;;;6.74;56.82
9935;BME280;5006;41.828;23.478;2023-04-06T04:25:30;89620.97;;;7.21;55.69
9935;BME280;5006;41.828;23.478;2023-04-06T04:26:37;89639.63;;;7.49;54.50
9935;BME280;5006;41.828;23.478;2023-04-06T04:27:43;89633.16;;;7.29;55.77
9935;BME280;5006;41.828;23.478;2023-04-06T04:28:49;89631.22;;;7.57;54.73
9935;BME280;5006;41.828;23.478;2023-04-06T04:29:55;89629.66;;;7.67;53.90
9935;BME280;5006;41.828;23.478;2023-04-06T04:31:01;89638.88;;;6.75;55.65
9935;BME280;5006;41.828;23.478;2023-04-06T04:32:09;89637.59;;;6.24;56.59
9935;BME280;5006;41.828;23.478;2023-04-06T04:33:15;89635.97;;;5.88;57.49
9935;BME280;5006;41.828;23.478;2023-04-06T04:34:21;89635.78;;;6.55;56.43
9935;BME280;5006;41.828;23.478;2023-04-06T04:35:29;89642.59;;;6.35;56.40
9935;BME280;5006;41.828;23.478;2023-04-06T04:36:34;89635.81;;;6.73;55.74
9935;BME280;5006;41.828;23.478;2023-04-06T04:37:43;89640.00;;;6.60;55.83
9935;BME280;5006;41.828;23.478;2023-04-06T04:38:48;89638.03;;;6.39;56.22
9935;BME280;5006;41.828;23.478;2023-04-06T04:39:54;89636.19;;;7.13;55.62
9935;BME280;5006;41.828;23.478;2023-04-06T04:40:59;89639.25;;;7.01;54.95
9935;BME280;5006;41.828;23.478;2023-04-06T04:42:05;89641.00;;;8.02;53.44
9935;BME280;5006;41.828;23.478;2023-04-06T04:43:12;89631.91;;;7.82;53.99
9935;BME280;5006;41.828;23.478;2023-04-06T04:44:17;89639.41;;;8.15;53.32
9935;BME280;5006;41.828;23.478;2023-04-06T04:45:24;89632.09;;;8.40;53.04
9935;BME280;5006;41.828;23.478;2023-04-06T04:46:30;89628.19;;;8.58;52.92
9935;BME280;5006;41.828;23.478;2023-04-06T04:47:35;89633.59;;;8.52;52.58
9935;BME280;5006;41.828;23.478;2023-04-06T04:48:42;89629.50;;;8.91;51.92
9935;BME280;5006;41.828;23.478;2023-04-06T04:49:47;89626.91;;;8.84;52.23
9935;BME280;5006;41.828;23.478;2023-04-06T04:50:58;89640.66;;;7.86;53.71
9935;BME280;5006;41.828;23.478;2023-04-06T04:52:21;89630.03;;;7.65;54.74
9935;BME280;5006;41.828;23.478;2023-04-06T04:53:34;89633.09;;;7.53;54.77
9935;BME280;5006;41.828;23.478;2023-04-06T04:54:47;89633.09;;;7.67;54.22
9935;BME280;5006;41.828;23.478;2023-04-06T04:55:59;89634.28;;;7.45;55.22
9935;BME280;5006;41.828;23.478;2023-04-06T04:57:06;89624.34;;;7.53;55.01
9935;BME280;5006;41.828;23.478;2023-04-06T04:58:21;89632.81;;;7.02;55.87
9935;BME280;5006;41.828;23.478;2023-04-06T04:59:34;89623.28;;;7.12;55.86
9935;BME280;5006;41.828;23.478;2023-04-06T05:00:49;89627.81;;;7.43;55.48
9935;BME280;5006;41.828;23.478;2023-04-06T05:01:55;89631.09;;;8.03;54.41
9935;BME280;5006;41.828;23.478;2023-04-06T05:03:07;89619.59;;;8.20;54.11
9935;BME280;5006;41.828;23.478;2023-04-06T05:04:16;89618.25;;;8.62;53.12
9935;BME280;5006;41.828;23.478;2023-04-06T05:05:21;89615.53;;;8.66;53.25
9935;BME280;5006;41.828;23.478;2023-04-06T05:06:28;89620.72;;;8.15;53.09
9935;BME280;5006;41.828;23.478;2023-04-06T05:07:34;89616.06;;;8.40;53.29
9935;BME280;5006;41.828;23.478;2023-04-06T05:08:40;89613.88;;;8.89;52.69
9935;BME280;5006;41.828;23.478;2023-04-06T05:09:46;89612.94;;;8.59;52.42
9935;BME280;5006;41.828;23.478;2023-04-06T05:10:52;89623.44;;;8.08;53.25
9935;BME280;5006;41.828;23.478;2023-04-06T05:11:57;89616.91;;;8.16;53.33
9935;BME280;5006;41.828;23.478;2023-04-06T05:13:03;89626.47;;;8.21;52.82
9935;BME280;5006;41.828;23.478;2023-04-06T05:14:09;89627.00;;;7.74;53.49
9935;BME280;5006;41.828;23.478;2023-04-06T05:15:15;89618.72;;;9.05;51.76
9935;BME280;5006;41.828;23.478;2023-04-06T05:16:21;89619.69;;;8.77;51.96
9935;BME280;5006;41.828;23.478;2023-04-06T05:17:28;89622.09;;;9.12;51.35
9935;BME280;5006;41.828;23.478;2023-04-06T05:18:34;89623.44;;;8.87;50.68
9935;BME280;5006;41.828;23.478;2023-04-06T05:19:40;89623.91;;;8.68;51.58
9935;BME280;5006;41.828;23.478;2023-04-06T05:20:47;89626.47;;;8.14;52.39
9935;BME280;5006;41.828;23.478;2023-04-06T05:21:51;89627.22;;;8.18;52.81
9935;BME280;5006;41.828;23.478;2023-04-06T05:22:57;89625.34;;;8.18;52.57
9935;BME280;5006;41.828;23.478;2023-04-06T05:24:03;89628.75;;;8.15;52.21
9935;BME280;5006;41.828;23.478;2023-04-06T05:25:10;89620.00;;;8.18;52.14
9935;BME280;5006;41.828;23.478;2023-04-06T05:26:17;89618.25;;;7.66;53.53
9935;BME280;5006;41.828;23.478;2023-04-06T05:27:23;89626.44;;;8.28;52.67
9935;BME280;5006;41.828;23.478;2023-04-06T05:28:30;89625.81;;;7.89;53.58
9935;BME280;5006;41.828;23.478;2023-04-06T05:29:34;89623.22;;;7.61;53.57
9935;BME280;5006;41.828;23.478;2023-04-06T05:30:40;89620.59;;;6.91;54.88
9935;BME280;5006;41.828;23.478;2023-04-06T05:31:48;89617.56;;;7.10;54.73
9935;BME280;5006;41.828;23.478;2023-04-06T05:32:56;89619.44;;;7.44;54.41
9935;BME280;5006;41.828;23.478;2023-04-06T05:34:03;89627.44;;;7.37;54.29
9935;BME280;5006;41.828;23.478;2023-04-06T05:35:12;89627.81;;;7.08;54.79
9935;BME280;5006;41.828;23.478;2023-04-06T05:36:18;89626.31;;;7.28;54.64
9935;BME280;5006;41.828;23.478;2023-04-06T05:37:26;89620.88;;;7.77;53.67
9935;BME280;5006;41.828;23.478;2023-04-06T05:38:31;89623.97;;;7.58;53.43
9935;BME280;5006;41.828;23.478;2023-04-06T05:39:43;89622.75;;;7.87;52.91
9935;BME280;5006;41.828;23.478;2023-04-06T05:40:49;89613.94;;;7.97;52.80
9935;BME280;5006;41.828;23.478;2023-04-06T05:41:58;89614.06;;;7.55;53.28
9935;BME280;5006;41.828;23.478;2023-04-06T05:43:16;89617.91;;;7.40;53.92
9935;BME280;5006;41.828;23.478;2023-04-06T05:44:24;89608.22;;;7.91;52.46
9935;BME280;5006;41.828;23.478;2023-04-06T05:45:39;89618.13;;;8.01;52.74
9935;BME280;5006;41.828;23.478;2023-04-06T05:46:44;89622.81;;;7.59;52.62
9935;BME280;5006;41.828;23.478;2023-04-06T05:47:54;89619.81;;;7.32;53.02
9935;BME280;5006;41.828;23.478;2023-04-06T05:49:06;89614.47;;;7.46;52.92
9935;BME280;5006;41.828;23.478;2023-04-06T05:50:15;89607.06;;;7.96;52.98
9935;BME280;5006;41.828;23.478;2023-04-06T05:51:20;89621.28;;;7.68;52.10
9935;BME280;5006;41.828;23.478;2023-04-06T05:52:27;89619.22;;;8.21;51.57
9935;BME280;5006;41.828;23.478;2023-04-06T05:53:32;89617.31;;;8.15;51.84
9935;BME280;5006;41.828;23.478;2023-04-06T05:54:38;89615.84;;;8.82;50.82
9935;BME280;5006;41.828;23.478;2023-04-06T05:55:44;89607.78;;;8.85;50.83
9935;BME280;5006;41.828;23.478;2023-04-06T05:56:53;89605.53;;;8.77;51.12
9935;BME280;5006;41.828;23.478;2023-04-06T05:57:59;89605.56;;;9.24;50.13
9935;BME280;5006;41.828;23.478;2023-04-06T05:59:04;89605.91;;;8.82;50.37
9935;BME280;5006;41.828;23.478;2023-04-06T06:00:11;89619.47;;;9.09;50.11
9935;BME280;5006;41.828;23.478;2023-04-06T06:01:27;89611.81;;;9.55;48.39
9935;BME280;5006;41.828;23.478;2023-04-06T06:02:36;89612.69;;;9.82;48.71
9935;BME280;5006;41.828;23.478;2023-04-06T06:03:42;89614.25;;;9.79;48.98
9935;BME280;5006;41.828;23.478;2023-04-06T06:04:49;89619.84;;;9.51;48.82
9935;BME280;5006;41.828;23.478;2023-04-06T06:05:59;89615.88;;;10.07;47.89